• Join FlightAware (Why Join?)
  • Login
  • US Flag GB Flag 
08:56 EDT


 

Airport Tracker/Info


-or-


 

Live Flight TrackerFlight Track Log ✈ UAL4543 ✈ 17-Apr-2013 ✈ KEWR - KDSM

Flight Track Log - Related Links

Times and Time Zones

All times are in EDT time to prevent confusion due to time zone crossing. See the UAL4543 flight status page for this flight to view local times or setup timezone preferences in your user account.

Time Position Orientation Groundspeed Altitude Reporting Facility
EDT Latitude Longitude Course Direction KTS MPH feet Rate Location/Type
20:18 40.7167 -74.1500 360° North 174 200 1,200  Level New York TRACON
20:19 40.7667 -74.1500 360° North 239 275 3,200 2,100 Climbing New York TRACON
20:20 40.7833 -74.2333 285° West 249 287 5,700 2,640 Climbing New York TRACON
20:21 40.8000 -74.3167 285° West 245 282 8,500 2,580 Climbing New York TRACON
20:22 40.8333 -74.3833 303° West 253 291 10,700 1,500 Climbing New York TRACON
20:23 40.8500 -74.5000 281° West 296 341 11,600 1,020 Climbing New York TRACON
20:25 40.8683 -74.6647 278° West 344 396 13,400 1,380 Climbing New York Center
20:26 40.8825 -74.7972 278° West 344 396 15,100 1,500 Climbing New York Center
20:27 40.8933 -74.9106 277° West 344 396 16,500 1,320 Climbing New York Center
20:28 40.9069 -75.0486 277° West 349 402 17,900 1,440 Climbing New York Center
20:29 40.9025 -75.1692 267° West 349 402 19,500 1,380 Climbing New York Center
20:30 40.8811 -75.2994 258° West 349 402 20,700 1,560 Climbing New York Center
20:31 40.8542 -75.4047 251° West 349 402 22,700 1,740 Climbing New York Center
20:32 40.8264 -75.5236 253° West 349 402 24,200 1,440 Climbing New York Center
20:33 40.8006 -75.6450 254° West 349 402 25,600 1,380 Climbing New York Center
20:34 40.7728 -75.7636 253° West 344 396 27,100 1,440 Climbing New York Center
20:35 40.7469 -75.8822 254° West 344 396 28,500 1,200 Climbing New York Center
20:36 40.7189 -75.9981 252° West 339 390 29,600 1,140 Climbing New York Center
20:37 40.6925 -76.1192 254° West 339 390 30,900 1,200 Climbing New York Center
20:38 40.6953 -76.2397 272° West 339 390 32,100 1,260 Climbing New York Center
20:39 40.7108 -76.3561 280° West 327 376 33,400 1,200 Climbing New York Center
20:40 40.7242 -76.4694 279° West 327 376 34,500 960 Climbing New York Center
20:41 40.7375 -76.5828 279° West 322 371 35,400 660 Climbing New York Center
20:42 40.7486 -76.6906 278° West 316 364 35,900 240 Climbing New York Center
20:43 40.7617 -76.8069 278° West 316 364 36,000  Climbing New York Center
20:44 40.7797 -76.9400 280° West 321 369 36,000  Level New York Center
20:45 40.7936 -77.0703 278° West 339 390 36,000  Level New York Center
20:46 40.8094 -77.2033 279° West 362 417 36,000  Level New York Center
20:47 40.8247 -77.3447 278° West 377 434 36,000  Level New York Center
20:49 40.8542 -77.6156 278° West 418 481 36,000  Level Cleveland Center
20:50 40.8683 -77.7603 277° West 412 474 36,000  Level Cleveland Center
20:51 40.8864 -77.9025 280° West 402 463 36,000  Level Cleveland Center
20:52 40.9000 -78.0447 277° West 402 463 36,000  Level Cleveland Center
20:53 40.9153 -78.1817 278° West 397 457 36,000  Level Cleveland Center
20:54 40.9331 -78.3267 279° West 397 457 36,000  Level Cleveland Center
20:55 40.9461 -78.4692 277° West 397 457 36,000  Level Cleveland Center
20:56 40.9611 -78.6089 278° West 397 457 36,000  Level Cleveland Center
20:57 40.9761 -78.7514 278° West 391 450 36,000  Level Cleveland Center
20:58 40.9886 -78.8942 277° West 391 450 36,000  Level Cleveland Center
20:59 41.0031 -79.0342 278° West 391 450 36,000  Level Cleveland Center
21:00 41.0153 -79.1797 276° West 391 450 36,000  Level Cleveland Center
21:01 41.0294 -79.3169 278° West 391 450 36,000  Level Cleveland Center
21:02 41.0436 -79.4572 278° West 391 450 36,000  Level Cleveland Center
21:03 41.0553 -79.5972 276° West 391 450 36,000  Level Cleveland Center
21:04 41.0689 -79.7350 278° West 391 450 36,000  Level Cleveland Center
21:05 41.0803 -79.8725 276° West 386 444 36,000  Level Cleveland Center
21:06 41.0914 -80.0017 277° West 392 451 36,000  Level Cleveland Center
21:07 41.1044 -80.1394 277° West 387 445 36,000  Level Cleveland Center
21:08 41.1153 -80.2800 276° West 387 445 36,000  Level Cleveland Center
21:09 41.1261 -80.4178 276° West 387 445 36,000  Level Cleveland Center
21:10 41.1386 -80.5719 276° West 387 445 36,000  Level Cleveland Center
21:11 41.1511 -80.7128 277° West 387 445 36,000  Level Cleveland Center
21:12 41.1697 -80.8508 280° West 387 445 36,000  Level Cleveland Center
21:13 41.1964 -80.9914 284° West 393 452 36,000  Level Cleveland Center
21:14 41.2208 -81.1297 283° West 387 445 36,000  Level Cleveland Center
21:15 41.2450 -81.2653 283° West 393 452 36,000  Level Cleveland Center
21:16 41.2692 -81.4064 283° West 393 452 36,000  Level Cleveland Center
21:17 41.2931 -81.5283 285° West 393 452 36,000  Level Cleveland Center
21:18 41.3147 -81.6669 282° West 393 452 36,000  Level Cleveland Center
21:19 41.3428 -81.8028 285° West 393 452 36,000  Level Cleveland Center
21:20 41.3681 -81.9528 283° West 393 452 36,000  Level Cleveland Center
21:21 41.3875 -82.0722 282° West 388 447 36,000  Level Cleveland Center
21:22 41.4103 -82.2278 281° West 388 447 36,000  Level Cleveland Center
21:23 41.4333 -82.3639 283° West 383 441 36,000  Level Cleveland Center
21:24 41.4561 -82.4975 283° West 377 434 36,000  Level Cleveland Center
21:25 41.4767 -82.6311 282° West 372 428 36,000  Level Cleveland Center
21:26 41.4992 -82.7650 283° West 371 427 36,000  Level Cleveland Center
21:27 41.5217 -82.9017 282° West 371 427 36,000  Level Cleveland Center
21:28 41.5400 -83.0189 282° West 371 427 36,000  Level Cleveland Center
21:29 41.5619 -83.1558 282° West 376 433 36,000  Level Cleveland Center
21:30 41.6069 -83.2908 294° West 366 421 36,000  Level Cleveland Center
21:31 41.6708 -83.4047 307° West 366 421 36,000  Level Cleveland Center
21:32 41.7369 -83.5161 309° West 378 435 36,000  Level Cleveland Center
21:33 41.8028 -83.6278 308° West 383 441 36,000  Level Cleveland Center
21:34 41.8606 -83.7253 309° West 383 441 36,000  Level Cleveland Center
21:35 41.9306 -83.8350 311° West 378 435 36,000  Level Cleveland Center
21:36 42.0003 -83.9419 311° West 386 444 36,000  Level Cleveland Center
21:37 42.0425 -84.0728 294° West 386 444 36,000  Level Cleveland Center
21:38 42.0758 -84.2033 289° West 373 429 36,000  Level Cleveland Center
21:39 42.1114 -84.3314 291° West 356 410 36,000  Level Cleveland Center
21:40 42.1369 -84.4392 288° West 346 398 36,000  Level Cleveland Center
21:41 42.1725 -84.5592 292° West 341 392 36,000  Level Cleveland Center
21:42 42.2136 -84.6936 292° West 346 398 36,000  Level Cleveland Center
21:44 42.2908 -84.9528 292° West 378 435 36,000  Level Chicago Center
21:45 42.2881 -85.0872 268° West 363 418 36,000  Level Chicago Center
21:46 42.2867 -85.2192 269° West 354 407 36,000  Level Chicago Center
21:47 42.2847 -85.3550 269° West 360 414 36,000  Level Chicago Center
21:48 42.2825 -85.4919 269° West 364 419 36,000  Level Chicago Center
21:49 42.2811 -85.6278 269° West 361 415 36,000  Level Chicago Center
21:50 42.2789 -85.7622 269° West 359 413 36,000  Level Chicago Center
21:51 42.2764 -85.8994 269° West 363 418 36,000  Level Chicago Center
21:52 42.2656 -86.0436 264° West 358 412 36,000  Level Chicago Center
21:53 42.2558 -86.1778 264° West 360 414 36,000  Level Chicago Center
21:54 42.2450 -86.3144 264° West 366 421 36,000  Level Chicago Center
21:55 42.2333 -86.4550 264° West 375 432 36,000  Level Chicago Center
21:56 42.2228 -86.5967 264° West 381 438 36,000  Level Chicago Center
21:57 42.2108 -86.7586 264° West 379 436 36,000  Level Chicago Center
21:58 42.2014 -86.8964 265° West 375 432 36,000  Level Chicago Center
21:59 42.1886 -87.0275 263° West 361 415 36,000  Level Chicago Center
22:00 42.1906 -87.1567 271° West 354 407 36,000  Level Chicago Center
22:01 42.2328 -87.2819 295° West 370 426 36,000  Level Chicago Center
22:02 42.2756 -87.4117 294° West 377 434 36,000  Level Chicago Center
22:03 42.3297 -87.5692 295° West 387 445 36,000  Level Chicago Center
22:04 42.3739 -87.7039 294° West 392 451 36,000  Level Chicago Center
22:05 42.3958 -87.8425 282° West 384 442 36,000  Level Chicago Center
22:06 42.3703 -87.9756 255° West 363 418 36,000  Level Chicago Center
22:07 42.3511 -88.1133 259° West 368 423 36,000  Level Chicago Center
22:08 42.3319 -88.2489 259° West 367 422 36,000  Level Chicago Center
22:09 42.3139 -88.3775 259° West 365 420 36,000  Level Chicago Center
22:10 42.2947 -88.5131 259° West 369 425 36,000  Level Chicago Center
22:11 42.2756 -88.6478 259° West 369 425 36,000  Level Chicago Center
22:12 42.2522 -88.8125 259° West 374 430 36,000  Level Chicago Center
22:13 42.2336 -88.9353 258° West 377 434 36,000  Level Chicago Center
22:14 42.2136 -89.0736 259° West 375 432 36,000  Level Chicago Center
22:15 42.1894 -89.2364 259° West 379 436 36,000  Level Chicago Center
22:16 42.1692 -89.3728 259° West 373 429 36,000  Level Chicago Center
22:17 42.1489 -89.5069 259° West 367 422 36,000  Level Chicago Center
22:18 42.1289 -89.6397 259° West 363 418 36,000  Level Chicago Center
22:19 42.1086 -89.7717 258° West 360 414 36,000  Level Chicago Center
22:20 42.0897 -89.8986 259° West 350 403 36,000  Level Chicago Center
22:21 42.0714 -90.0114 258° West 343 395 36,000  Level Chicago Center
22:22 42.0522 -90.1369 258° West 346 398 36,000  Level Chicago Center
22:23 42.0267 -90.2989 258° West 368 423 36,000  Level Chicago Center
22:24 42.0044 -90.4361 258° West 377 434 36,000  Level Chicago Center
22:26 41.9831 -90.5725 258° West 375 432 36,000  Level Chicago Center
22:27 41.9589 -90.7150 257° West 391 450 36,000  Level Chicago Center
22:28 41.9358 -90.8508 257° West 379 436 36,000  Level Chicago Center
22:29 41.9133 -90.9889 258° West 381 438 36,000  Level Chicago Center
22:30 41.8897 -91.1308 257° West 390 449 36,000  Level Chicago Center
22:31 41.8664 -91.2722 258° West 390 449 36,000  Level Chicago Center
22:32 41.8414 -91.4142 257° West 392 451 36,000  Level Chicago Center
22:33 41.8186 -91.5528 258° West 385 443 36,000  Level Chicago Center
22:34 41.7950 -91.6889 257° West 377 434 36,000 -420 Level Chicago Center
22:35 41.7656 -91.8544 257° West 383 441 35,200 -1,140 Descending Chicago Center
22:36 41.7425 -91.9914 257° West 381 438 33,700 -1,740 Descending Chicago Center
22:37 41.7175 -92.1278 256° West 380 437 31,700 -2,280 Descending Chicago Center
22:38 41.6936 -92.2686 257° West 388 447 29,100 -2,880 Descending Chicago Center
22:39 41.6678 -92.4078 256° West 388 447 25,900 -3,240 Descending Chicago Center
22:40 41.6436 -92.5450 257° West 384 442 22,600 -3,120 Descending Chicago Center
22:41 41.6169 -92.6892 256° West 376 433 19,200 -2,760 Descending Minneapolis Center
22:42 41.5906 -92.8322 256° West 338 389 16,600 -2,340 Descending Minneapolis Center
22:43 41.5697 -92.9517 257° West 308 354 14,500 -2,040 Descending Minneapolis Center
22:44 41.5514 -93.0497 256° West 277 319 12,500 -1,740 Descending Minneapolis Center
22:45 41.5339 -93.1411 256° West 256 295 11,000 -1,500 Descending Minneapolis Center
22:46 41.5147 -93.2233 253° West 235 270 9,500 -1,500 Descending Minneapolis Center
22:47 41.5008 -93.2972 256° West 210 242 8,000 -1,560 Descending Minneapolis Center
22:48 41.4825 -93.3739 252° West 203 234 6,400 -960 Descending Minneapolis Center
22:49 41.4722 -93.4314 257° West 192 221 6,100 -120 Descending Minneapolis Center
22:50 41.4481 -93.4864 240° Southwest 174 200 6,200  Climbing Minneapolis Center
22:51 41.4242 -93.5469 242° Southwest 183 211 6,100 -600 Descending Minneapolis Center
22:52 41.4003 -93.6075 242° Southwest 186 214 5,000 -1,140 Descending Minneapolis Center
22:53 41.3725 -93.6767 242° Southwest 205 236 3,900 -900 Descending Minneapolis Center
22:54 41.3639 -93.7525 261° West 221 254 3,200 -420 Descending Minneapolis Center
22:55 41.3933 -93.8361 295° West 226 260 3,100 -60 Descending Minneapolis Center
22:56 41.4447 -93.8200 13° North 214 246 3,100  Level Minneapolis Center